createdAt,value
2023-03-26T00:00:24.884Z,6.75
2023-03-26T00:03:15.973Z,6.71
2023-03-26T00:05:47.683Z,6.66
2023-03-26T00:08:17.182Z,6.60
2023-03-26T00:10:46.772Z,6.56
2023-03-26T00:13:15.507Z,6.54
2023-03-26T00:15:44.297Z,6.51
2023-03-26T00:18:13.149Z,6.49
2023-03-26T00:20:42.015Z,6.47
2023-03-26T00:23:10.662Z,6.45
2023-03-26T00:25:41.068Z,6.43
2023-03-26T00:28:10.046Z,6.39
2023-03-26T00:30:41.119Z,6.36
2023-03-26T00:33:11.304Z,6.30
2023-03-26T00:35:40.014Z,6.26
2023-03-26T00:38:08.771Z,6.23
2023-03-26T00:40:37.569Z,6.22
2023-03-26T00:43:18.023Z,6.22
2023-03-26T00:45:48.526Z,6.22
2023-03-26T00:48:18.435Z,6.24
2023-03-26T00:50:50.640Z,6.25
2023-03-26T00:53:20.398Z,6.28
2023-03-26T00:55:59.688Z,6.30
2023-03-26T00:58:30.465Z,6.31
2023-03-26T01:01:02.877Z,6.33
2023-03-26T01:03:34.782Z,6.33
2023-03-26T01:06:08.001Z,6.33
2023-03-26T01:08:40.734Z,6.33
2023-03-26T01:11:16.287Z,6.33
2023-03-26T01:13:48.692Z,6.33
2023-03-26T01:16:25.145Z,6.33
2023-03-26T01:18:58.203Z,6.34
2023-03-26T01:21:31.377Z,6.36
2023-03-26T01:24:02.547Z,6.39
2023-03-26T01:27:00.954Z,6.42
2023-03-26T01:29:38.773Z,6.47
2023-03-26T01:32:23.105Z,6.50
2023-03-26T01:35:09.358Z,6.50
2023-03-26T01:37:47.746Z,6.50
2023-03-26T01:40:25.255Z,6.47
2023-03-26T01:43:01.137Z,6.45
2023-03-26T01:45:36.313Z,6.44
2023-03-26T01:48:06.978Z,6.43
2023-03-26T01:50:36.111Z,6.43
2023-03-26T01:53:05.559Z,6.45
2023-03-26T01:55:49.169Z,6.47
2023-03-26T01:58:26.517Z,6.50
2023-03-26T02:01:06.815Z,6.52
2023-03-26T02:03:44.401Z,6.53
2023-03-26T02:06:20.992Z,6.55
2023-03-26T02:08:53.480Z,6.56
2023-03-26T02:11:23.330Z,6.58
2023-03-26T02:13:52.967Z,6.58
2023-03-26T02:16:23.044Z,6.57
2023-03-26T02:18:55.148Z,6.55
2023-03-26T02:21:26.248Z,6.53
2023-03-26T02:24:02.257Z,6.52
2023-03-26T02:26:37.099Z,6.53
2023-03-26T02:29:14.246Z,6.51
2023-03-26T02:31:45.600Z,6.48
2023-03-26T02:34:14.436Z,6.43
2023-03-26T02:36:49.268Z,6.40
2023-03-26T03:09:15.892Z,6.40
2023-03-26T03:12:04.832Z,6.44
2023-03-26T03:14:35.961Z,6.47
2023-03-26T03:17:10.336Z,6.50
2023-03-26T03:19:40.587Z,6.52
2023-03-26T03:22:10.796Z,6.53
2023-03-26T03:24:43.292Z,6.55
2023-03-26T03:27:13.212Z,6.55
2023-03-26T03:29:47.104Z,6.57
2023-03-26T03:32:45.508Z,6.60
2023-03-26T03:35:15.604Z,6.63
2023-03-26T03:37:46.487Z,6.64
2023-03-26T03:40:15.823Z,6.65
2023-03-26T03:42:44.870Z,6.62
2023-03-26T03:45:15.260Z,6.60
2023-03-26T03:47:56.470Z,6.58
2023-03-26T03:50:31.351Z,6.56
2023-03-26T03:53:15.791Z,6.53
2023-03-26T03:55:52.393Z,6.50
2023-03-26T03:58:24.352Z,6.49
2023-03-26T04:01:00.223Z,6.48
2023-03-26T04:03:48.082Z,6.47
2023-03-26T04:06:18.679Z,6.45
2023-03-26T04:08:48.281Z,6.45
2023-03-26T04:11:18.120Z,6.45
2023-03-26T04:14:12.349Z,6.46
2023-03-26T04:16:54.526Z,6.47
2023-03-26T04:19:24.222Z,6.46
2023-03-26T04:21:53.855Z,6.45
2023-03-26T04:24:24.104Z,6.43
2023-03-26T04:27:31.552Z,6.40
2023-03-26T04:30:21.459Z,6.37
2023-03-26T04:33:16.482Z,6.36
2023-03-26T04:35:47.836Z,6.37
2023-03-26T04:38:17.828Z,6.39
2023-03-26T04:40:49.224Z,6.40
2023-03-26T04:43:21.064Z,6.42
2023-03-26T04:46:14.189Z,6.45
2023-03-26T04:48:50.432Z,6.48
2023-03-26T04:51:29.279Z,6.50
2023-03-26T04:54:00.241Z,6.51
2023-03-26T04:56:44.726Z,6.52
2023-03-26T04:59:48.152Z,6.51
2023-03-26T05:02:17.645Z,6.51
2023-03-26T05:04:56.641Z,6.53
2023-03-26T05:07:27.371Z,6.56
2023-03-26T05:09:57.905Z,6.60
2023-03-26T05:12:53.167Z,6.66
2023-03-26T05:15:41.974Z,6.72
2023-03-26T05:18:19.319Z,6.76
2023-03-26T05:20:53.039Z,6.80
2023-03-26T05:23:22.213Z,6.80
2023-03-26T05:26:00.121Z,6.81
2023-03-26T05:28:29.088Z,6.80
2023-03-26T05:31:06.506Z,6.79
2023-03-26T05:33:38.548Z,6.78
2023-03-26T05:36:13.263Z,6.78
2023-03-26T05:38:50.003Z,6.79
2023-03-26T05:41:42.766Z,6.83
2023-03-26T05:44:12.066Z,6.86
2023-03-26T05:46:41.632Z,6.93
2023-03-26T05:49:12.532Z,7.01
2023-03-26T05:51:41.511Z,7.10
2023-03-26T05:54:31.975Z,7.17
2023-03-26T05:57:27.713Z,7.20
2023-03-26T06:00:21.112Z,7.25
2023-03-26T06:02:56.837Z,7.29
2023-03-26T06:05:49.572Z,7.33
2023-03-26T06:08:33.039Z,7.38
2023-03-26T06:11:03.501Z,7.43
2023-03-26T06:13:36.635Z,7.48
2023-03-26T06:16:07.421Z,7.49
2023-03-26T06:18:39.366Z,7.46
2023-03-26T06:21:41.121Z,7.36
2023-03-26T06:24:21.723Z,7.26
2023-03-26T06:27:11.412Z,7.17
2023-03-26T06:30:18.476Z,7.12
2023-03-26T06:33:08.276Z,7.09
2023-03-26T06:35:45.535Z,7.07
2023-03-26T06:38:15.645Z,7.07
2023-03-26T06:40:49.341Z,7.07
2023-03-26T06:43:46.486Z,7.09
2023-03-26T06:46:37.589Z,7.09
2023-03-26T06:49:43.106Z,7.11
2023-03-26T06:52:41.995Z,7.16
2023-03-26T06:55:27.113Z,7.20
2023-03-26T06:58:27.852Z,7.26
2023-03-26T07:01:16.156Z,7.54
2023-03-26T07:04:04.376Z,7.81
2023-03-26T07:06:54.659Z,7.97
2023-03-26T07:09:42.417Z,8.13
2023-03-26T07:12:47.359Z,8.28
2023-03-26T07:15:24.163Z,8.41
2023-03-26T07:17:54.832Z,8.51
2023-03-26T07:20:29.712Z,8.65
2023-03-26T07:22:59.844Z,8.79
2023-03-26T07:25:40.844Z,8.89
2023-03-26T07:28:37.105Z,8.99
2023-03-26T07:31:26.516Z,9.00
2023-03-26T07:34:18.370Z,9.00
2023-03-26T07:37:26.502Z,9.00
2023-03-26T07:40:35.103Z,8.99
2023-03-26T07:43:58.504Z,8.93
2023-03-26T07:46:41.122Z,8.89
2023-03-26T07:49:35.008Z,8.83
2023-03-26T07:52:31.759Z,8.80
2023-03-26T07:55:19.966Z,8.78
2023-03-26T07:58:22.543Z,8.79
2023-03-26T08:01:19.280Z,8.78
2023-03-26T08:04:24.257Z,8.80
2023-03-26T08:07:39.398Z,8.86
2023-03-26T08:10:33.488Z,8.89
2023-03-26T08:13:21.168Z,8.95
2023-03-26T08:16:00.256Z,8.98
2023-03-26T08:18:44.472Z,8.99
2023-03-26T08:21:20.887Z,8.99
2023-03-26T08:24:01.744Z,9.00
2023-03-26T08:26:40.905Z,9.05
2023-03-26T08:29:20.610Z,9.05
2023-03-26T08:31:52.398Z,9.07
2023-03-26T08:34:21.471Z,9.16
2023-03-26T08:36:51.582Z,9.25
2023-03-26T08:39:21.843Z,9.32
2023-03-26T08:42:30.042Z,9.37
2023-03-26T08:45:36.685Z,9.40
2023-03-26T08:48:35.694Z,9.51
2023-03-26T08:51:34.234Z,9.64
2023-03-26T08:54:47.447Z,9.73
2023-03-26T08:57:37.841Z,9.77
2023-03-26T09:00:35.807Z,9.74
2023-03-26T09:03:39.273Z,9.67
2023-03-26T09:06:38.488Z,9.55
2023-03-26T09:09:42.791Z,9.47
2023-03-26T09:12:52.042Z,9.44
2023-03-26T09:15:53.146Z,9.40
2023-03-26T09:18:55.059Z,9.49
2023-03-26T09:22:10.682Z,9.69
2023-03-26T09:25:10.533Z,9.94
2023-03-26T09:27:40.658Z,10.12
2023-03-26T09:30:37.528Z,10.21
2023-03-26T09:33:52.038Z,10.24
2023-03-26T09:36:46.490Z,10.32
2023-03-26T09:39:30.390Z,10.36
2023-03-26T09:42:16.550Z,10.36
2023-03-26T09:45:02.915Z,10.29
2023-03-26T09:47:56.586Z,10.24
2023-03-26T09:50:40.901Z,10.28
2023-03-26T09:53:26.386Z,10.31
2023-03-26T09:56:09.643Z,10.34
2023-03-26T09:58:56.776Z,10.44
2023-03-26T10:01:44.883Z,10.40
2023-03-26T10:04:45.385Z,10.38
2023-03-26T10:07:36.042Z,10.51
2023-03-26T10:10:16.528Z,10.67
2023-03-26T10:13:02.007Z,10.76
2023-03-26T10:15:58.015Z,10.79
2023-03-26T10:18:40.830Z,10.84
2023-03-26T10:21:24.618Z,10.92
2023-03-26T10:24:11.155Z,11.07
2023-03-26T10:27:09.741Z,11.29
2023-03-26T10:30:08.150Z,11.29
2023-03-26T10:32:46.804Z,11.13
2023-03-26T10:35:36.996Z,11.02
2023-03-26T10:38:20.319Z,11.13
2023-03-26T10:41:13.606Z,11.05
2023-03-26T10:44:14.085Z,10.56
2023-03-26T10:47:14.036Z,9.95
2023-03-26T10:50:16.963Z,9.52
2023-03-26T10:52:58.890Z,9.40
2023-03-26T10:55:33.463Z,9.51
2023-03-26T10:58:12.897Z,9.80
2023-03-26T11:00:50.150Z,10.13
2023-03-26T11:03:38.091Z,10.44
2023-03-26T11:06:18.644Z,10.81
2023-03-26T11:08:52.157Z,11.04
2023-03-26T11:11:29.804Z,11.23
2023-03-26T11:14:06.613Z,11.33
2023-03-26T11:16:55.097Z,11.35
2023-03-26T11:19:31.469Z,11.35
2023-03-26T11:22:13.717Z,11.33
2023-03-26T11:25:09.312Z,11.31
2023-03-26T11:27:56.335Z,11.36
2023-03-26T11:30:36.378Z,11.38
2023-03-26T11:33:10.754Z,11.41
2023-03-26T11:35:45.716Z,11.43
2023-03-26T11:38:21.456Z,11.46
2023-03-26T11:40:55.293Z,11.53
2023-03-26T11:43:49.141Z,11.70
2023-03-26T11:46:25.834Z,11.98
2023-03-26T11:48:58.885Z,12.13
2023-03-26T11:51:33.309Z,12.09
2023-03-26T11:54:03.465Z,12.01
2023-03-26T11:56:35.836Z,12.08
2023-03-26T11:59:11.718Z,12.23
2023-03-26T12:01:51.178Z,12.35
2023-03-26T12:04:28.684Z,12.44
2023-03-26T12:07:08.852Z,12.60
2023-03-26T12:09:48.956Z,12.71
2023-03-26T12:12:18.654Z,12.56
2023-03-26T12:14:48.301Z,12.32
2023-03-26T12:17:31.405Z,12.09
2023-03-26T12:20:06.156Z,11.88
2023-03-26T12:22:37.318Z,11.74
2023-03-26T12:25:19.836Z,11.74
2023-03-26T12:27:52.763Z,11.70
2023-03-26T12:30:24.876Z,11.61
2023-03-26T12:32:59.674Z,11.47
2023-03-26T12:35:34.372Z,11.40
2023-03-26T12:38:22.721Z,11.39
2023-03-26T12:41:06.238Z,11.27
2023-03-26T12:44:54.132Z,11.14
2023-03-26T12:47:59.337Z,11.04
2023-03-26T12:49:30.023Z,11.03
2023-03-26T12:52:11.495Z,11.00
2023-03-26T12:54:50.227Z,10.97
2023-03-26T12:57:23.388Z,10.92
2023-03-26T13:00:12.856Z,10.84
2023-03-26T13:03:06.722Z,10.72
2023-03-26T13:05:50.337Z,10.51
2023-03-26T13:08:51.690Z,10.31
2023-03-26T13:11:29.377Z,10.28
2023-03-26T13:14:11.722Z,10.40
2023-03-26T13:16:49.341Z,10.61
2023-03-26T13:19:28.310Z,10.81
2023-03-26T13:22:13.655Z,10.93
2023-03-26T13:24:53.077Z,11.01
2023-03-26T13:27:35.233Z,11.06
2023-03-26T13:30:15.018Z,11.02
2023-03-26T13:32:58.091Z,10.94
2023-03-26T13:35:33.496Z,10.79
2023-03-26T13:38:10.042Z,10.75
2023-03-26T13:40:52.818Z,10.82
2023-03-26T13:43:36.488Z,10.80
2023-03-26T13:46:16.733Z,10.76
2023-03-26T13:48:52.488Z,10.68
2023-03-26T13:51:29.810Z,10.47
2023-03-26T13:54:05.346Z,10.20
2023-03-26T13:56:43.368Z,10.08
2023-03-26T13:59:20.584Z,9.99
2023-03-26T14:01:54.826Z,9.95
2023-03-26T14:04:32.065Z,10.01
2023-03-26T14:07:09.834Z,10.15
2023-03-26T14:09:48.851Z,10.28
2023-03-26T14:12:40.180Z,10.36
2023-03-26T14:15:16.649Z,10.39
2023-03-26T14:17:51.949Z,10.42
2023-03-26T14:20:56.512Z,10.41
2023-03-26T14:24:12.589Z,10.36
2023-03-26T14:27:07.005Z,10.39
2023-03-26T14:29:59.501Z,10.44
2023-03-26T14:32:45.422Z,10.43
2023-03-26T14:35:36.831Z,10.36
2023-03-26T14:38:27.904Z,10.31
2023-03-26T14:41:02.337Z,10.30
2023-03-26T14:44:05.350Z,10.32
2023-03-26T14:46:50.690Z,10.35
2023-03-26T14:49:56.725Z,10.34
2023-03-26T14:52:36.442Z,10.31
2023-03-26T14:55:16.462Z,10.28
2023-03-26T14:58:03.292Z,10.23
2023-03-26T15:01:08.341Z,10.13
2023-03-26T15:04:40.242Z,10.05
2023-03-26T15:07:41.051Z,10.03
2023-03-26T15:10:38.669Z,10.01
2023-03-26T15:13:32.746Z,9.97
2023-03-26T15:16:19.786Z,9.94
2023-03-26T15:19:36.362Z,9.89
2023-03-26T15:22:47.581Z,9.83
2023-03-26T15:25:48.684Z,9.86
2023-03-26T15:29:13.402Z,9.90
2023-03-26T15:32:15.456Z,9.89
2023-03-26T15:35:15.326Z,9.87
2023-03-26T15:38:17.380Z,9.83
2023-03-26T15:40:57.824Z,9.79
2023-03-26T15:44:22.313Z,9.78
2023-03-26T15:46:58.647Z,9.76
2023-03-26T15:49:39.588Z,9.73
2023-03-26T15:52:27.942Z,9.69
2023-03-26T15:55:05.198Z,9.65
2023-03-26T15:57:44.013Z,9.64
2023-03-26T16:00:23.055Z,9.62
2023-03-26T16:03:14.343Z,9.60
2023-03-26T16:06:07.669Z,9.59
2023-03-26T16:08:46.404Z,9.58
2023-03-26T16:11:35.995Z,9.57
2023-03-26T16:14:17.174Z,9.56
2023-03-26T16:16:57.966Z,9.52
2023-03-26T16:19:49.584Z,9.45
2023-03-26T16:22:43.954Z,9.37
2023-03-26T16:25:32.208Z,9.28
2023-03-26T16:28:28.513Z,9.22
2023-03-26T16:31:36.753Z,9.16
2023-03-26T16:34:26.741Z,9.09
2023-03-26T16:36:58.824Z,9.02
2023-03-26T16:39:43.043Z,8.94
2023-03-26T16:42:30.868Z,8.86
2023-03-26T16:45:13.498Z,8.77
2023-03-26T16:47:55.086Z,8.67
2023-03-26T16:50:33.421Z,8.59
2023-03-26T16:53:15.898Z,8.52
2023-03-26T16:55:53.308Z,8.45
2023-03-26T16:58:33.162Z,8.38
2023-03-26T17:01:11.342Z,8.35
2023-03-26T17:03:45.160Z,8.32
2023-03-26T17:06:46.508Z,8.27
2023-03-26T17:09:28.493Z,8.22
2023-03-26T17:12:07.760Z,8.13
2023-03-26T17:14:56.377Z,8.04
2023-03-26T17:17:46.779Z,7.94
2023-03-26T17:20:32.587Z,7.87
2023-03-26T17:23:21.316Z,7.79
2023-03-26T17:26:03.317Z,7.70
2023-03-26T17:28:52.620Z,7.64
2023-03-26T17:31:38.416Z,7.60
2023-03-26T17:34:55.597Z,7.51
2023-03-26T17:37:45.019Z,7.43
2023-03-26T17:40:51.711Z,7.31
2023-03-26T17:43:50.172Z,7.28
2023-03-26T17:46:33.568Z,7.29
2023-03-26T17:49:14.571Z,7.30
2023-03-26T17:51:51.649Z,7.27
2023-03-26T17:54:26.767Z,7.12
2023-03-26T17:57:04.675Z,6.97
2023-03-26T17:59:40.307Z,6.92
2023-03-26T18:02:16.309Z,6.85
2023-03-26T18:04:48.611Z,6.79
2023-03-26T18:07:49.415Z,6.73
2023-03-26T18:10:34.005Z,6.65
2023-03-26T18:13:20.931Z,6.57
2023-03-26T18:16:00.787Z,6.46
2023-03-26T18:18:36.258Z,6.45
2023-03-26T18:21:07.246Z,6.46
2023-03-26T18:23:38.896Z,6.46
2023-03-26T18:26:14.118Z,6.43
2023-03-26T18:28:45.781Z,6.38
2023-03-26T18:31:20.074Z,6.32
2023-03-26T18:33:54.268Z,6.23
2023-03-26T18:36:28.992Z,6.09
2023-03-26T18:39:00.629Z,5.96
2023-03-26T18:41:36.839Z,5.93
2023-03-26T18:44:08.802Z,5.93
2023-03-26T18:46:39.721Z,5.96
2023-03-26T18:49:13.858Z,5.99
2023-03-26T18:51:56.142Z,6.00
2023-03-26T18:54:32.932Z,6.01
2023-03-26T18:57:15.411Z,6.00
2023-03-26T18:59:45.861Z,6.00
2023-03-26T19:02:17.648Z,5.94
2023-03-26T19:04:53.926Z,5.79
2023-03-26T19:07:27.220Z,5.63
2023-03-26T19:09:57.369Z,5.50
2023-03-26T19:12:31.869Z,5.46
2023-03-26T19:15:07.896Z,5.44
2023-03-26T19:17:40.623Z,5.41
2023-03-26T19:20:16.721Z,5.40
2023-03-26T19:22:46.254Z,5.36
2023-03-26T19:25:22.456Z,5.25
2023-03-26T19:27:52.167Z,5.26
2023-03-26T19:30:29.582Z,5.27
2023-03-26T19:33:12.763Z,5.30
2023-03-26T19:35:48.524Z,5.24
2023-03-26T19:38:24.621Z,5.20
2023-03-26T19:40:58.066Z,5.17
2023-03-26T19:43:28.352Z,5.13
2023-03-26T19:46:01.295Z,5.08
2023-03-26T19:48:45.710Z,5.01
2023-03-26T19:51:22.379Z,4.96
2023-03-26T19:53:55.636Z,4.92
2023-03-26T19:56:27.335Z,4.92
2023-03-26T19:58:58.664Z,4.91
2023-03-26T20:01:35.930Z,4.77
2023-03-26T20:04:10.705Z,4.68
2023-03-26T20:06:43.769Z,4.59
2023-03-26T20:09:15.676Z,4.47
2023-03-26T20:11:46.692Z,4.35
2023-03-26T20:14:21.681Z,4.24
2023-03-26T20:16:51.808Z,4.16
2023-03-26T20:19:23.275Z,4.10
2023-03-26T20:21:53.475Z,4.03
2023-03-26T20:24:28.688Z,4.05
2023-03-26T20:26:58.191Z,4.10
2023-03-26T20:29:28.198Z,4.17
2023-03-26T20:32:01.470Z,4.22
2023-03-26T20:34:31.622Z,4.27
2023-03-26T20:37:02.242Z,4.32
2023-03-26T20:39:31.471Z,4.34
2023-03-26T20:42:03.858Z,4.36
2023-03-26T20:44:33.029Z,4.38
2023-03-26T20:47:03.722Z,4.38
2023-03-26T20:49:32.777Z,4.34
2023-03-26T20:52:02.263Z,4.29
2023-03-26T20:54:31.108Z,4.22
2023-03-26T20:57:02.281Z,4.14
2023-03-26T20:59:31.478Z,4.10
2023-03-26T21:02:00.945Z,4.04
2023-03-26T21:04:32.290Z,3.94
2023-03-26T21:07:17.548Z,3.89
2023-03-26T21:09:48.956Z,3.92
2023-03-26T21:12:28.987Z,4.03
2023-03-26T21:14:59.586Z,4.14
2023-03-26T21:17:30.246Z,4.26
2023-03-26T21:20:10.215Z,4.36
2023-03-26T21:22:45.869Z,4.45
2023-03-26T21:25:29.113Z,4.55
2023-03-26T21:28:15.632Z,4.61
2023-03-26T21:30:46.535Z,4.61
2023-03-26T21:33:17.052Z,4.46
2023-03-26T21:35:52.414Z,4.31
2023-03-26T21:38:23.762Z,4.16
2023-03-26T21:40:58.818Z,4.08
2023-03-26T21:43:31.462Z,4.09
2023-03-26T21:46:01.829Z,4.08
2023-03-26T21:48:31.704Z,4.06
2023-03-26T21:51:04.689Z,4.06
2023-03-26T21:53:35.982Z,4.09
2023-03-26T21:56:18.144Z,4.11
2023-03-26T21:58:55.172Z,4.05
2023-03-26T22:01:35.682Z,3.85
2023-03-26T22:04:14.435Z,3.66
2023-03-26T22:06:49.933Z,3.52
2023-03-26T22:09:26.392Z,3.48
2023-03-26T22:12:03.181Z,3.49
2023-03-26T22:14:33.418Z,3.47
2023-03-26T22:17:03.178Z,3.49
2023-03-26T22:19:34.019Z,3.51
2023-03-26T22:22:07.159Z,3.51
2023-03-26T22:24:36.574Z,3.53
2023-03-26T22:27:05.616Z,3.53
2023-03-26T22:29:35.366Z,3.52
2023-03-26T22:32:07.186Z,3.57
2023-03-26T22:34:38.292Z,3.59
2023-03-26T22:37:07.859Z,3.50
2023-03-26T22:39:37.284Z,3.46
2023-03-26T22:42:08.846Z,3.44
2023-03-26T22:44:37.953Z,3.39
2023-03-26T22:47:07.704Z,3.35
2023-03-26T22:49:37.857Z,3.27
2023-03-26T22:52:08.095Z,3.16
2023-03-26T22:54:37.273Z,3.12
2023-03-26T22:57:07.110Z,3.12
2023-03-26T22:59:36.544Z,3.01
2023-03-26T23:02:07.195Z,2.85
2023-03-26T23:04:37.266Z,2.71
2023-03-26T23:07:08.728Z,2.70
2023-03-26T23:09:37.962Z,2.75
2023-03-26T23:12:08.486Z,2.82
2023-03-26T23:14:37.805Z,2.86
2023-03-26T23:17:13.917Z,2.88
2023-03-26T23:19:44.163Z,2.83
2023-03-26T23:22:13.652Z,2.69
2023-03-26T23:24:42.538Z,2.55
2023-03-26T23:27:13.324Z,2.44
2023-03-26T23:29:45.264Z,2.39
2023-03-26T23:32:24.278Z,2.44
2023-03-26T23:34:55.273Z,2.45
2023-03-26T23:37:24.243Z,2.46
2023-03-26T23:39:53.171Z,2.54
2023-03-26T23:42:29.252Z,2.50
2023-03-26T23:45:00.567Z,2.47
2023-03-26T23:47:34.083Z,2.45
2023-03-26T23:50:07.214Z,2.45
2023-03-26T23:52:37.529Z,2.54
2023-03-26T23:55:08.217Z,2.63
2023-03-26T23:57:37.198Z,2.63
